sensor_id;sensor_type;location;lat;lon;timestamp;temperature;humidity
30825;DHT22;17550;45.486;12.222;2023-03-31T00:01:37;12.10;99.90
30825;DHT22;17550;45.486;12.222;2023-03-31T00:04:10;12.10;99.90
30825;DHT22;17550;45.486;12.222;2023-03-31T00:06:39;12.10;99.90
30825;DHT22;17550;45.486;12.222;2023-03-31T00:09:14;12.10;99.90
30825;DHT22;17550;45.486;12.222;2023-03-31T00:11:44;12.00;99.90
30825;DHT22;17550;45.486;12.222;2023-03-31T00:14:10;12.00;99.90
30825;DHT22;17550;45.486;12.222;2023-03-31T00:16:37;12.00;99.90
30825;DHT22;17550;45.486;12.222;2023-03-31T00:19:04;12.00;99.90
30825;DHT22;17550;45.486;12.222;2023-03-31T00:21:30;11.90;99.90
30825;DHT22;17550;45.486;12.222;2023-03-31T00:24:09;11.90;99.90
30825;DHT22;17550;45.486;12.222;2023-03-31T00:26:36;12.00;99.90
30825;DHT22;17550;45.486;12.222;2023-03-31T00:29:03;12.00;99.90
30825;DHT22;17550;45.486;12.222;2023-03-31T00:31:29;12.00;99.90
30825;DHT22;17550;45.486;12.222;2023-03-31T00:33:55;12.00;99.90
30825;DHT22;17550;45.486;12.222;2023-03-31T00:36:22;11.90;99.90
30825;DHT22;17550;45.486;12.222;2023-03-31T00:38:56;11.90;99.90
30825;DHT22;17550;45.486;12.222;2023-03-31T00:41:24;11.90;99.90
30825;DHT22;17550;45.486;12.222;2023-03-31T00:44:19;11.90;99.90
30825;DHT22;17550;45.486;12.222;2023-03-31T00:51:55;11.80;99.90
30825;DHT22;17550;45.486;12.222;2023-03-31T00:54:22;11.80;99.90
30825;DHT22;17550;45.486;12.222;2023-03-31T00:56:52;11.80;99.90
30825;DHT22;17550;45.486;12.222;2023-03-31T00:59:22;11.90;99.90
30825;DHT22;17550;45.486;12.222;2023-03-31T01:01:49;11.90;99.90
30825;DHT22;17550;45.486;12.222;2023-03-31T01:04:15;11.90;99.90
30825;DHT22;17550;45.486;12.222;2023-03-31T01:07:03;11.90;99.90
30825;DHT22;17550;45.486;12.222;2023-03-31T01:09:30;11.90;99.90
30825;DHT22;17550;45.486;12.222;2023-03-31T01:12:04;11.80;99.90
30825;DHT22;17550;45.486;12.222;2023-03-31T01:14:30;11.80;99.90
30825;DHT22;17550;45.486;12.222;2023-03-31T01:16:57;11.70;99.90
30825;DHT22;17550;45.486;12.222;2023-03-31T01:34:15;11.70;99.90
30825;DHT22;17550;45.486;12.222;2023-03-31T01:40:27;11.70;99.90
30825;DHT22;17550;45.486;12.222;2023-03-31T01:51:44;11.70;99.90
30825;DHT22;17550;45.486;12.222;2023-03-31T01:56:59;11.70;99.90
30825;DHT22;17550;45.486;12.222;2023-03-31T02:02:19;11.80;99.90
30825;DHT22;17550;45.486;12.222;2023-03-31T02:04:52;11.80;99.90
30825;DHT22;17550;45.486;12.222;2023-03-31T02:07:26;11.80;99.90
30825;DHT22;17550;45.486;12.222;2023-03-31T02:09:57;11.80;99.90
30825;DHT22;17550;45.486;12.222;2023-03-31T02:12:27;11.80;99.90
30825;DHT22;17550;45.486;12.222;2023-03-31T02:14:54;11.80;99.90
30825;DHT22;17550;45.486;12.222;2023-03-31T02:17:23;11.80;99.90
30825;DHT22;17550;45.486;12.222;2023-03-31T02:20:02;11.80;99.90
30825;DHT22;17550;45.486;12.222;2023-03-31T02:22:36;11.80;99.90
30825;DHT22;17550;45.486;12.222;2023-03-31T02:25:05;11.80;99.90
30825;DHT22;17550;45.486;12.222;2023-03-31T02:27:34;11.80;99.90
30825;DHT22;17550;45.486;12.222;2023-03-31T02:30:02;11.80;99.90
30825;DHT22;17550;45.486;12.222;2023-03-31T02:34:58;11.90;99.90
30825;DHT22;17550;45.486;12.222;2023-03-31T02:37:25;11.90;99.90
30825;DHT22;17550;45.486;12.222;2023-03-31T02:39:54;11.90;99.90
30825;DHT22;17550;45.486;12.222;2023-03-31T02:42:21;11.90;99.90
30825;DHT22;17550;45.486;12.222;2023-03-31T02:44:47;11.90;99.90
30825;DHT22;17550;45.486;12.222;2023-03-31T02:47:14;11.80;99.90
30825;DHT22;17550;45.486;12.222;2023-03-31T02:49:46;11.80;99.90
30825;DHT22;17550;45.486;12.222;2023-03-31T02:58:17;11.80;99.90
30825;DHT22;17550;45.486;12.222;2023-03-31T03:03:37;11.90;99.90
30825;DHT22;17550;45.486;12.222;2023-03-31T03:06:10;11.90;99.90
30825;DHT22;17550;45.486;12.222;2023-03-31T03:08:53;12.00;99.90
30825;DHT22;17550;45.486;12.222;2023-03-31T03:11:22;12.00;99.90
30825;DHT22;17550;45.486;12.222;2023-03-31T03:16:34;12.00;99.90
30825;DHT22;17550;45.486;12.222;2023-03-31T03:19:04;11.90;99.90
30825;DHT22;17550;45.486;12.222;2023-03-31T03:21:31;11.90;99.90
30825;DHT22;17550;45.486;12.222;2023-03-31T03:23:57;11.80;99.90
30825;DHT22;17550;45.486;12.222;2023-03-31T03:26:24;11.90;99.90
30825;DHT22;17550;45.486;12.222;2023-03-31T03:28:53;11.80;99.90
30825;DHT22;17550;45.486;12.222;2023-03-31T03:31:19;11.80;99.90
30825;DHT22;17550;45.486;12.222;2023-03-31T03:33:45;11.80;99.90
30825;DHT22;17550;45.486;12.222;2023-03-31T03:36:11;11.80;99.90
30825;DHT22;17550;45.486;12.222;2023-03-31T03:38:37;11.80;99.90
30825;DHT22;17550;45.486;12.222;2023-03-31T03:41:03;11.80;99.90
30825;DHT22;17550;45.486;12.222;2023-03-31T03:43:29;11.90;99.90
30825;DHT22;17550;45.486;12.222;2023-03-31T03:45:55;11.90;99.90
30825;DHT22;17550;45.486;12.222;2023-03-31T03:48:20;11.80;99.90
30825;DHT22;17550;45.486;12.222;2023-03-31T03:50:47;11.90;99.90
30825;DHT22;17550;45.486;12.222;2023-03-31T03:53:14;11.90;99.90
30825;DHT22;17550;45.486;12.222;2023-03-31T03:55:40;11.90;99.90
30825;DHT22;17550;45.486;12.222;2023-03-31T03:58:05;11.90;99.90
30825;DHT22;17550;45.486;12.222;2023-03-31T04:00:31;11.80;99.90
30825;DHT22;17550;45.486;12.222;2023-03-31T04:02:57;11.90;99.90
30825;DHT22;17550;45.486;12.222;2023-03-31T04:05:23;11.80;99.90
30825;DHT22;17550;45.486;12.222;2023-03-31T04:07:48;11.90;99.90
30825;DHT22;17550;45.486;12.222;2023-03-31T04:10:14;11.90;99.90
30825;DHT22;17550;45.486;12.222;2023-03-31T04:12:40;11.90;99.90
30825;DHT22;17550;45.486;12.222;2023-03-31T04:15:06;11.90;99.90
30825;DHT22;17550;45.486;12.222;2023-03-31T04:17:32;11.90;99.90
30825;DHT22;17550;45.486;12.222;2023-03-31T04:20:07;11.90;99.90
30825;DHT22;17550;45.486;12.222;2023-03-31T04:22:35;11.90;99.90
30825;DHT22;17550;45.486;12.222;2023-03-31T04:25:09;11.80;99.90
30825;DHT22;17550;45.486;12.222;2023-03-31T04:27:46;11.80;99.90
30825;DHT22;17550;45.486;12.222;2023-03-31T04:30:15;11.80;99.90
30825;DHT22;17550;45.486;12.222;2023-03-31T04:32:51;11.80;99.90
30825;DHT22;17550;45.486;12.222;2023-03-31T04:35:18;11.80;99.90
30825;DHT22;17550;45.486;12.222;2023-03-31T04:37:48;11.80;99.90
30825;DHT22;17550;45.486;12.222;2023-03-31T04:40:15;11.80;99.90
30825;DHT22;17550;45.486;12.222;2023-03-31T04:42:42;11.70;99.90
30825;DHT22;17550;45.486;12.222;2023-03-31T04:45:09;11.70;99.90
30825;DHT22;17550;45.486;12.222;2023-03-31T04:47:35;11.70;99.90
30825;DHT22;17550;45.486;12.222;2023-03-31T04:50:01;11.80;99.90
30825;DHT22;17550;45.486;12.222;2023-03-31T04:52:27;11.70;99.90
30825;DHT22;17550;45.486;12.222;2023-03-31T04:54:53;11.80;99.90
30825;DHT22;17550;45.486;12.222;2023-03-31T04:57:18;11.80;99.90
30825;DHT22;17550;45.486;12.222;2023-03-31T04:59:44;11.80;99.90
30825;DHT22;17550;45.486;12.222;2023-03-31T05:02:10;11.90;99.90
30825;DHT22;17550;45.486;12.222;2023-03-31T05:04:36;11.80;99.90
30825;DHT22;17550;45.486;12.222;2023-03-31T05:07:02;11.80;99.90
30825;DHT22;17550;45.486;12.222;2023-03-31T05:09:28;11.80;99.90
30825;DHT22;17550;45.486;12.222;2023-03-31T05:11:54;11.90;99.90
30825;DHT22;17550;45.486;12.222;2023-03-31T05:14:20;11.90;99.90
30825;DHT22;17550;45.486;12.222;2023-03-31T05:16:46;11.90;99.90
30825;DHT22;17550;45.486;12.222;2023-03-31T05:19:12;11.90;99.90
30825;DHT22;17550;45.486;12.222;2023-03-31T05:21:38;11.90;99.90
30825;DHT22;17550;45.486;12.222;2023-03-31T05:24:03;11.90;99.90
30825;DHT22;17550;45.486;12.222;2023-03-31T05:26:29;11.90;99.90
30825;DHT22;17550;45.486;12.222;2023-03-31T05:28:55;11.90;99.90
30825;DHT22;17550;45.486;12.222;2023-03-31T05:31:21;12.00;99.90
30825;DHT22;17550;45.486;12.222;2023-03-31T05:33:47;12.00;99.90
30825;DHT22;17550;45.486;12.222;2023-03-31T05:36:15;12.00;99.90
30825;DHT22;17550;45.486;12.222;2023-03-31T05:38:42;11.90;99.90
30825;DHT22;17550;45.486;12.222;2023-03-31T05:41:09;11.90;99.90
30825;DHT22;17550;45.486;12.222;2023-03-31T05:43:36;11.90;99.90
30825;DHT22;17550;45.486;12.222;2023-03-31T05:46:03;11.90;99.90
30825;DHT22;17550;45.486;12.222;2023-03-31T05:48:28;11.90;99.90
30825;DHT22;17550;45.486;12.222;2023-03-31T05:50:58;12.00;99.90
30825;DHT22;17550;45.486;12.222;2023-03-31T05:53:25;12.00;99.90
30825;DHT22;17550;45.486;12.222;2023-03-31T05:55:59;12.00;99.90
30825;DHT22;17550;45.486;12.222;2023-03-31T05:58:26;11.90;99.90
30825;DHT22;17550;45.486;12.222;2023-03-31T06:01:13;12.00;99.90
30825;DHT22;17550;45.486;12.222;2023-03-31T06:03:40;11.90;99.90
30825;DHT22;17550;45.486;12.222;2023-03-31T06:06:07;11.90;99.90
30825;DHT22;17550;45.486;12.222;2023-03-31T06:08:36;12.00;99.90
30825;DHT22;17550;45.486;12.222;2023-03-31T06:11:10;12.00;99.90
30825;DHT22;17550;45.486;12.222;2023-03-31T06:13:37;12.00;99.90
30825;DHT22;17550;45.486;12.222;2023-03-31T06:16:04;12.10;99.90
30825;DHT22;17550;45.486;12.222;2023-03-31T06:18:32;12.10;99.90
30825;DHT22;17550;45.486;12.222;2023-03-31T06:20:58;12.10;99.90
30825;DHT22;17550;45.486;12.222;2023-03-31T06:23:24;12.20;99.90
30825;DHT22;17550;45.486;12.222;2023-03-31T06:25:50;12.30;99.90
30825;DHT22;17550;45.486;12.222;2023-03-31T06:28:16;12.30;99.90
30825;DHT22;17550;45.486;12.222;2023-03-31T06:30:42;12.40;99.90
30825;DHT22;17550;45.486;12.222;2023-03-31T06:33:08;12.40;99.90
30825;DHT22;17550;45.486;12.222;2023-03-31T06:35:38;12.40;99.90
30825;DHT22;17550;45.486;12.222;2023-03-31T06:38:04;12.50;99.90
30825;DHT22;17550;45.486;12.222;2023-03-31T06:40:29;12.50;99.90
30825;DHT22;17550;45.486;12.222;2023-03-31T06:42:55;12.60;99.90
30825;DHT22;17550;45.486;12.222;2023-03-31T06:45:21;12.50;99.90
30825;DHT22;17550;45.486;12.222;2023-03-31T06:47:46;12.50;99.90
30825;DHT22;17550;45.486;12.222;2023-03-31T06:50:13;12.50;99.90
30825;DHT22;17550;45.486;12.222;2023-03-31T06:52:38;12.60;99.90
30825;DHT22;17550;45.486;12.222;2023-03-31T06:55:06;12.60;99.90
30825;DHT22;17550;45.486;12.222;2023-03-31T06:57:32;12.60;99.90
30825;DHT22;17550;45.486;12.222;2023-03-31T06:59:58;12.60;99.90
30825;DHT22;17550;45.486;12.222;2023-03-31T07:02:24;12.70;99.90
30825;DHT22;17550;45.486;12.222;2023-03-31T07:04:50;12.70;99.90
30825;DHT22;17550;45.486;12.222;2023-03-31T07:07:15;12.70;99.90
30825;DHT22;17550;45.486;12.222;2023-03-31T07:09:41;12.70;99.90
30825;DHT22;17550;45.486;12.222;2023-03-31T07:12:07;12.70;99.90
30825;DHT22;17550;45.486;12.222;2023-03-31T07:14:34;12.80;99.90
30825;DHT22;17550;45.486;12.222;2023-03-31T07:17:01;12.80;99.90
30825;DHT22;17550;45.486;12.222;2023-03-31T07:19:26;12.70;99.90
30825;DHT22;17550;45.486;12.222;2023-03-31T07:21:52;12.70;99.90
30825;DHT22;17550;45.486;12.222;2023-03-31T07:24:18;12.70;99.90
30825;DHT22;17550;45.486;12.222;2023-03-31T07:26:44;12.70;99.90
30825;DHT22;17550;45.486;12.222;2023-03-31T07:29:10;12.70;99.90
30825;DHT22;17550;45.486;12.222;2023-03-31T07:31:36;12.60;99.90
30825;DHT22;17550;45.486;12.222;2023-03-31T07:34:02;12.60;99.90
30825;DHT22;17550;45.486;12.222;2023-03-31T07:36:29;12.60;99.90
30825;DHT22;17550;45.486;12.222;2023-03-31T07:38:55;12.60;99.90
30825;DHT22;17550;45.486;12.222;2023-03-31T07:41:21;12.70;99.90
30825;DHT22;17550;45.486;12.222;2023-03-31T07:43:47;12.80;99.90
30825;DHT22;17550;45.486;12.222;2023-03-31T07:46:16;12.80;99.90
30825;DHT22;17550;45.486;12.222;2023-03-31T07:48:42;12.80;99.90
30825;DHT22;17550;45.486;12.222;2023-03-31T07:51:08;12.80;99.90
30825;DHT22;17550;45.486;12.222;2023-03-31T07:53:34;12.90;99.90
30825;DHT22;17550;45.486;12.222;2023-03-31T07:56:00;12.90;99.90
30825;DHT22;17550;45.486;12.222;2023-03-31T07:58:26;12.90;99.90
30825;DHT22;17550;45.486;12.222;2023-03-31T08:00:52;12.90;99.90
30825;DHT22;17550;45.486;12.222;2023-03-31T08:03:18;13.00;99.90
30825;DHT22;17550;45.486;12.222;2023-03-31T08:05:43;13.00;99.90
30825;DHT22;17550;45.486;12.222;2023-03-31T08:08:09;13.10;99.90
30825;DHT22;17550;45.486;12.222;2023-03-31T08:10:35;13.10;99.90
30825;DHT22;17550;45.486;12.222;2023-03-31T08:13:04;13.20;99.90
30825;DHT22;17550;45.486;12.222;2023-03-31T08:15:30;13.20;99.90
30825;DHT22;17550;45.486;12.222;2023-03-31T08:17:55;13.30;99.90
30825;DHT22;17550;45.486;12.222;2023-03-31T08:20:21;13.40;99.90
30825;DHT22;17550;45.486;12.222;2023-03-31T08:22:47;13.50;99.90
30825;DHT22;17550;45.486;12.222;2023-03-31T08:25:12;13.50;99.90
30825;DHT22;17550;45.486;12.222;2023-03-31T08:27:39;13.60;99.90
30825;DHT22;17550;45.486;12.222;2023-03-31T08:30:07;13.70;99.90
30825;DHT22;17550;45.486;12.222;2023-03-31T08:32:34;13.80;99.90
30825;DHT22;17550;45.486;12.222;2023-03-31T08:35:00;14.00;99.90
30825;DHT22;17550;45.486;12.222;2023-03-31T08:37:28;14.00;99.90
30825;DHT22;17550;45.486;12.222;2023-03-31T08:39:54;14.10;99.90
30825;DHT22;17550;45.486;12.222;2023-03-31T08:42:22;14.10;99.90
30825;DHT22;17550;45.486;12.222;2023-03-31T08:45:00;14.00;99.90
30825;DHT22;17550;45.486;12.222;2023-03-31T08:47:30;13.80;99.90
30825;DHT22;17550;45.486;12.222;2023-03-31T08:49:59;13.80;99.90
30825;DHT22;17550;45.486;12.222;2023-03-31T08:52:36;13.90;99.90
30825;DHT22;17550;45.486;12.222;2023-03-31T08:55:06;14.10;99.90
30825;DHT22;17550;45.486;12.222;2023-03-31T08:57:46;14.10;99.90
30825;DHT22;17550;45.486;12.222;2023-03-31T09:00:17;14.10;99.90
30825;DHT22;17550;45.486;12.222;2023-03-31T09:02:58;14.20;99.90
30825;DHT22;17550;45.486;12.222;2023-03-31T09:10:55;14.30;99.90
30825;DHT22;17550;45.486;12.222;2023-03-31T09:13:41;14.20;99.90
30825;DHT22;17550;45.486;12.222;2023-03-31T09:16:25;14.20;99.90
30825;DHT22;17550;45.486;12.222;2023-03-31T09:18:56;14.30;99.90
30825;DHT22;17550;45.486;12.222;2023-03-31T09:24:10;14.30;99.90
30825;DHT22;17550;45.486;12.222;2023-03-31T09:26:41;14.20;99.90
30825;DHT22;17550;45.486;12.222;2023-03-31T09:29:15;14.20;99.90
30825;DHT22;17550;45.486;12.222;2023-03-31T09:31:44;14.20;99.90
30825;DHT22;17550;45.486;12.222;2023-03-31T09:34:26;14.20;99.90
30825;DHT22;17550;45.486;12.222;2023-03-31T09:36:52;14.10;99.90
30825;DHT22;17550;45.486;12.222;2023-03-31T09:39:18;14.10;99.90
30825;DHT22;17550;45.486;12.222;2023-03-31T09:41:45;14.10;99.90
30825;DHT22;17550;45.486;12.222;2023-03-31T09:46:48;14.20;99.90
30825;DHT22;17550;45.486;12.222;2023-03-31T09:49:17;14.10;99.90
30825;DHT22;17550;45.486;12.222;2023-03-31T09:51:47;14.20;99.90
30825;DHT22;17550;45.486;12.222;2023-03-31T09:54:30;14.30;99.90
30825;DHT22;17550;45.486;12.222;2023-03-31T09:56:59;14.40;99.90
30825;DHT22;17550;45.486;12.222;2023-03-31T09:59:35;14.50;99.90
30825;DHT22;17550;45.486;12.222;2023-03-31T10:02:34;14.50;99.90
30825;DHT22;17550;45.486;12.222;2023-03-31T10:05:02;14.60;99.90
30825;DHT22;17550;45.486;12.222;2023-03-31T10:07:29;14.70;99.90
30825;DHT22;17550;45.486;12.222;2023-03-31T10:09:55;14.70;99.90
30825;DHT22;17550;45.486;12.222;2023-03-31T10:12:25;14.80;99.90
30825;DHT22;17550;45.486;12.222;2023-03-31T10:14:53;14.90;99.90
30825;DHT22;17550;45.486;12.222;2023-03-31T10:17:28;15.00;99.90
30825;DHT22;17550;45.486;12.222;2023-03-31T10:19:59;15.10;99.90
30825;DHT22;17550;45.486;12.222;2023-03-31T10:22:31;15.10;99.90
30825;DHT22;17550;45.486;12.222;2023-03-31T10:25:13;15.10;99.90
30825;DHT22;17550;45.486;12.222;2023-03-31T10:27:40;15.30;99.90
30825;DHT22;17550;45.486;12.222;2023-03-31T10:30:10;15.40;99.90
30825;DHT22;17550;45.486;12.222;2023-03-31T10:32:42;15.40;99.90
30825;DHT22;17550;45.486;12.222;2023-03-31T10:35:23;15.40;99.90
30825;DHT22;17550;45.486;12.222;2023-03-31T10:37:54;15.60;99.90
30825;DHT22;17550;45.486;12.222;2023-03-31T10:40:26;15.70;99.90
30825;DHT22;17550;45.486;12.222;2023-03-31T10:45:28;16.00;99.90
30825;DHT22;17550;45.486;12.222;2023-03-31T10:47:57;16.20;99.90
30825;DHT22;17550;45.486;12.222;2023-03-31T10:50:37;16.20;99.90
30825;DHT22;17550;45.486;12.222;2023-03-31T10:53:13;16.40;99.90
30825;DHT22;17550;45.486;12.222;2023-03-31T10:59:05;16.60;99.90
30825;DHT22;17550;45.486;12.222;2023-03-31T11:01:39;16.70;99.90
30825;DHT22;17550;45.486;12.222;2023-03-31T11:12:46;17.20;99.90
30825;DHT22;17550;45.486;12.222;2023-03-31T11:32:07;15.80;99.90
30825;DHT22;17550;45.486;12.222;2023-03-31T11:42:43;15.70;99.90
30825;DHT22;17550;45.486;12.222;2023-03-31T11:45:26;15.90;99.90
30825;DHT22;17550;45.486;12.222;2023-03-31T11:47:58;16.20;99.90
30825;DHT22;17550;45.486;12.222;2023-03-31T11:50:31;16.50;99.90
30825;DHT22;17550;45.486;12.222;2023-03-31T11:53:05;16.70;99.90
30825;DHT22;17550;45.486;12.222;2023-03-31T11:55:33;16.90;99.90
30825;DHT22;17550;45.486;12.222;2023-03-31T11:58:03;17.10;99.90
30825;DHT22;17550;45.486;12.222;2023-03-31T12:03:20;16.90;99.90
30825;DHT22;17550;45.486;12.222;2023-03-31T12:05:52;16.90;99.90
30825;DHT22;17550;45.486;12.222;2023-03-31T12:08:45;17.10;99.90
30825;DHT22;17550;45.486;12.222;2023-03-31T12:11:14;17.20;99.90
30825;DHT22;17550;45.486;12.222;2023-03-31T12:13:51;17.40;99.90
30825;DHT22;17550;45.486;12.222;2023-03-31T12:19:06;18.00;99.90
30825;DHT22;17550;45.486;12.222;2023-03-31T12:21:36;18.30;99.90
30825;DHT22;17550;45.486;12.222;2023-03-31T12:24:03;18.10;99.90
30825;DHT22;17550;45.486;12.222;2023-03-31T12:29:28;18.10;99.90
30825;DHT22;17550;45.486;12.222;2023-03-31T12:31:57;18.30;99.90
30825;DHT22;17550;45.486;12.222;2023-03-31T12:34:25;18.30;99.90
30825;DHT22;17550;45.486;12.222;2023-03-31T12:48:14;18.70;99.90
30825;DHT22;17550;45.486;12.222;2023-03-31T12:54:02;18.50;99.90
30825;DHT22;17550;45.486;12.222;2023-03-31T12:57:02;18.30;99.90
30825;DHT22;17550;45.486;12.222;2023-03-31T12:59:35;18.40;99.90
30825;DHT22;17550;45.486;12.222;2023-03-31T13:04:39;18.50;99.90
30825;DHT22;17550;45.486;12.222;2023-03-31T13:09:49;18.50;99.90
30825;DHT22;17550;45.486;12.222;2023-03-31T13:12:24;18.50;99.90
30825;DHT22;17550;45.486;12.222;2023-03-31T13:14:53;18.50;99.90
30825;DHT22;17550;45.486;12.222;2023-03-31T13:17:32;18.40;99.90
30825;DHT22;17550;45.486;12.222;2023-03-31T13:20:34;18.30;99.90
30825;DHT22;17550;45.486;12.222;2023-03-31T13:23:15;18.30;99.90
30825;DHT22;17550;45.486;12.222;2023-03-31T13:25:50;18.20;99.90
30825;DHT22;17550;45.486;12.222;2023-03-31T13:33:32;17.90;99.90
30825;DHT22;17550;45.486;12.222;2023-03-31T13:44:46;17.70;99.80
30825;DHT22;17550;45.486;12.222;2023-03-31T13:53:15;17.70;99.80
30825;DHT22;17550;45.486;12.222;2023-03-31T14:04:21;17.50;99.70
30825;DHT22;17550;45.486;12.222;2023-03-31T14:06:56;17.40;99.40
30825;DHT22;17550;45.486;12.222;2023-03-31T14:09:33;17.30;99.30
30825;DHT22;17550;45.486;12.222;2023-03-31T14:11:59;17.20;98.90
30825;DHT22;17550;45.486;12.222;2023-03-31T14:14:25;17.10;98.80
30825;DHT22;17550;45.486;12.222;2023-03-31T14:16:54;17.10;98.90
30825;DHT22;17550;45.486;12.222;2023-03-31T14:22:46;16.90;99.00
30825;DHT22;17550;45.486;12.222;2023-03-31T14:25:34;16.90;99.20
30825;DHT22;17550;45.486;12.222;2023-03-31T14:28:40;16.80;99.20
30825;DHT22;17550;45.486;12.222;2023-03-31T14:31:20;16.70;99.40
30825;DHT22;17550;45.486;12.222;2023-03-31T14:36:45;16.60;99.40
30825;DHT22;17550;45.486;12.222;2023-03-31T14:39:19;16.50;99.60
30825;DHT22;17550;45.486;12.222;2023-03-31T14:41:51;16.50;99.70
30825;DHT22;17550;45.486;12.222;2023-03-31T14:44:17;16.40;99.90
30825;DHT22;17550;45.486;12.222;2023-03-31T14:46:45;16.30;99.90
30825;DHT22;17550;45.486;12.222;2023-03-31T14:49:47;16.30;99.90
30825;DHT22;17550;45.486;12.222;2023-03-31T14:52:14;16.30;99.90
30825;DHT22;17550;45.486;12.222;2023-03-31T14:54:43;16.20;99.90
30825;DHT22;17550;45.486;12.222;2023-03-31T14:57:13;16.20;99.90
30825;DHT22;17550;45.486;12.222;2023-03-31T14:59:40;16.20;99.90
30825;DHT22;17550;45.486;12.222;2023-03-31T15:02:14;16.20;99.90
30825;DHT22;17550;45.486;12.222;2023-03-31T15:04:41;16.20;99.90
30825;DHT22;17550;45.486;12.222;2023-03-31T15:07:11;16.20;99.90
30825;DHT22;17550;45.486;12.222;2023-03-31T15:09:38;16.20;99.90
30825;DHT22;17550;45.486;12.222;2023-03-31T15:12:10;16.10;99.90
30825;DHT22;17550;45.486;12.222;2023-03-31T15:14:57;16.10;99.90
30825;DHT22;17550;45.486;12.222;2023-03-31T15:17:30;16.00;99.90
30825;DHT22;17550;45.486;12.222;2023-03-31T15:19:59;16.00;99.90
30825;DHT22;17550;45.486;12.222;2023-03-31T15:22:28;16.00;99.90
30825;DHT22;17550;45.486;12.222;2023-03-31T15:24:55;16.00;99.90
30825;DHT22;17550;45.486;12.222;2023-03-31T15:30:28;15.90;99.90
30825;DHT22;17550;45.486;12.222;2023-03-31T15:32:54;15.90;99.90
30825;DHT22;17550;45.486;12.222;2023-03-31T15:35:33;15.70;99.90
30825;DHT22;17550;45.486;12.222;2023-03-31T15:38:01;15.60;99.90
30825;DHT22;17550;45.486;12.222;2023-03-31T15:40:39;15.30;99.90
30825;DHT22;17550;45.486;12.222;2023-03-31T15:43:28;15.10;99.90
30825;DHT22;17550;45.486;12.222;2023-03-31T15:45:56;15.00;99.90
30825;DHT22;17550;45.486;12.222;2023-03-31T15:51:19;14.90;99.90
30825;DHT22;17550;45.486;12.222;2023-03-31T15:53:52;14.80;99.90
30825;DHT22;17550;45.486;12.222;2023-03-31T15:56:41;14.70;99.90
30825;DHT22;17550;45.486;12.222;2023-03-31T15:59:23;14.70;99.90
30825;DHT22;17550;45.486;12.222;2023-03-31T16:01:50;14.80;99.90
30825;DHT22;17550;45.486;12.222;2023-03-31T16:04:16;14.80;99.90
30825;DHT22;17550;45.486;12.222;2023-03-31T16:07:00;14.80;99.90
30825;DHT22;17550;45.486;12.222;2023-03-31T16:09:57;14.80;99.90
30825;DHT22;17550;45.486;12.222;2023-03-31T16:12:30;14.70;99.90
30825;DHT22;17550;45.486;12.222;2023-03-31T16:15:09;14.60;99.90
30825;DHT22;17550;45.486;12.222;2023-03-31T16:17:47;14.60;99.90
30825;DHT22;17550;45.486;12.222;2023-03-31T16:20:24;14.50;99.90
30825;DHT22;17550;45.486;12.222;2023-03-31T16:22:57;14.50;99.90
30825;DHT22;17550;45.486;12.222;2023-03-31T16:25:26;14.40;99.90
30825;DHT22;17550;45.486;12.222;2023-03-31T16:27:56;14.40;99.90
30825;DHT22;17550;45.486;12.222;2023-03-31T16:30:40;14.40;99.90
30825;DHT22;17550;45.486;12.222;2023-03-31T16:33:11;14.30;99.90
30825;DHT22;17550;45.486;12.222;2023-03-31T16:35:42;14.30;99.90
30825;DHT22;17550;45.486;12.222;2023-03-31T16:38:10;14.30;99.90
30825;DHT22;17550;45.486;12.222;2023-03-31T16:40:44;14.30;99.90
30825;DHT22;17550;45.486;12.222;2023-03-31T16:43:21;14.30;99.90
30825;DHT22;17550;45.486;12.222;2023-03-31T16:45:55;14.30;99.90
30825;DHT22;17550;45.486;12.222;2023-03-31T16:48:24;14.30;99.90
30825;DHT22;17550;45.486;12.222;2023-03-31T16:50:51;14.20;99.90
30825;DHT22;17550;45.486;12.222;2023-03-31T16:53:21;14.20;99.90
30825;DHT22;17550;45.486;12.222;2023-03-31T16:55:47;14.10;99.90
30825;DHT22;17550;45.486;12.222;2023-03-31T16:58:14;14.10;99.90
30825;DHT22;17550;45.486;12.222;2023-03-31T17:00:40;14.10;99.90
30825;DHT22;17550;45.486;12.222;2023-03-31T17:03:08;14.00;99.90
30825;DHT22;17550;45.486;12.222;2023-03-31T17:05:38;14.00;99.90
30825;DHT22;17550;45.486;12.222;2023-03-31T17:08:04;14.00;99.90
30825;DHT22;17550;45.486;12.222;2023-03-31T17:10:31;14.00;99.90
30825;DHT22;17550;45.486;12.222;2023-03-31T17:12:56;14.00;99.90
30825;DHT22;17550;45.486;12.222;2023-03-31T17:15:22;13.90;99.90
30825;DHT22;17550;45.486;12.222;2023-03-31T17:17:48;13.90;99.90
30825;DHT22;17550;45.486;12.222;2023-03-31T17:20:13;13.90;99.90
30825;DHT22;17550;45.486;12.222;2023-03-31T17:22:39;13.90;99.90
30825;DHT22;17550;45.486;12.222;2023-03-31T17:25:05;13.90;99.90
30825;DHT22;17550;45.486;12.222;2023-03-31T17:27:33;13.90;99.90
30825;DHT22;17550;45.486;12.222;2023-03-31T17:29:59;13.90;99.90
30825;DHT22;17550;45.486;12.222;2023-03-31T17:32:25;13.80;99.90
30825;DHT22;17550;45.486;12.222;2023-03-31T17:34:51;13.80;99.90
30825;DHT22;17550;45.486;12.222;2023-03-31T17:37:17;13.80;99.90
30825;DHT22;17550;45.486;12.222;2023-03-31T17:39:44;13.70;99.90
30825;DHT22;17550;45.486;12.222;2023-03-31T17:42:11;13.70;99.90
30825;DHT22;17550;45.486;12.222;2023-03-31T17:44:38;13.70;99.90
30825;DHT22;17550;45.486;12.222;2023-03-31T17:47:04;13.70;99.90
30825;DHT22;17550;45.486;12.222;2023-03-31T17:49:30;13.70;99.90
30825;DHT22;17550;45.486;12.222;2023-03-31T17:51:57;13.70;99.90
30825;DHT22;17550;45.486;12.222;2023-03-31T17:54:23;13.60;99.90
30825;DHT22;17550;45.486;12.222;2023-03-31T17:56:49;13.60;99.90
30825;DHT22;17550;45.486;12.222;2023-03-31T17:59:16;13.60;99.90
30825;DHT22;17550;45.486;12.222;2023-03-31T18:01:43;13.70;99.90
30825;DHT22;17550;45.486;12.222;2023-03-31T18:04:08;13.70;99.90
30825;DHT22;17550;45.486;12.222;2023-03-31T18:06:34;13.60;99.90
30825;DHT22;17550;45.486;12.222;2023-03-31T18:09:00;13.60;99.90
30825;DHT22;17550;45.486;12.222;2023-03-31T18:11:26;13.60;99.90
30825;DHT22;17550;45.486;12.222;2023-03-31T18:13:53;13.50;99.90
30825;DHT22;17550;45.486;12.222;2023-03-31T18:16:18;13.40;99.90
30825;DHT22;17550;45.486;12.222;2023-03-31T18:18:44;13.50;99.90
30825;DHT22;17550;45.486;12.222;2023-03-31T18:21:11;13.40;99.90
30825;DHT22;17550;45.486;12.222;2023-03-31T18:23:38;13.40;99.90